Impacts METAR Board INFO
IDs:

KDTW - Detroit Metro/Wayne, MI, US

Updated at: 0946 UTC 19 Jan 2018
Potential Impact None Slight Moderate High
Time18/21Z 18/22Z 18/23Z 19/00Z 19/01Z 19/02Z 19/03Z 19/04Z 19/05Z 19/06Z 19/07Z 19/08Z 19/09Z
VIS9 8 9 9 9 10 10 10 10 10 10 10 10
CIG220 220 -- -- -- -- -- -- -- -- -- -- --
CoverBKNBKNSCTFEWFEWCLRCLRCLRCLRCLRCLRFEWFEW
FltCatVFRVFRVFRVFRVFRVFRVFRVFRVFRVFRVFRVFRVFR
WX--------------------------
WDir210210210210220230230230230230220220210
WSpd17 15 15 17 15 16 15 14 13 12 12 11 11
WGst22 -- -- -- -- -- 25 -- -- -- -- -- --
Raw hourly METARs
KDTW 182053Z 21017G22KT 9SM BKN220 M03/M09 A3003 RMK AO2 SLP177 T10281089 56017
KDTW 182153Z 21015KT 8SM BKN220 M03/M08 A3002 RMK AO2 SLP175 T10281083
KDTW 182253Z 21015KT 9SM SCT220 M04/M09 A3001 RMK AO2 SLP172 T10391089
KDTW 182353Z 21017KT 9SM FEW220 M04/M09 A3001 RMK AO2 SLP172 T10441089 11022 21044 56007
KDTW 190053Z 22015KT 9SM FEW220 M04/M09 A3000 RMK AO2 SLP170 T10441094
KDTW 190153Z 23016KT 10SM CLR M04/M09 A3001 RMK AO2 SLP170 T10391094
KDTW 190253Z 23015G25KT 10SM CLR M04/M09 A2998 RMK AO2 SLP162 T10391094 58008
KDTW 190353Z 23014KT 10SM CLR M04/M09 A2999 RMK AO2 SLP164 T10391094
KDTW 190453Z 23013KT 10SM CLR M04/M09 A2998 RMK AO2 SLP161 T10441094 410221106
KDTW 190553Z 23012KT 10SM CLR M04/M09 A2998 RMK AO2 SLP159 T10441094 11039 21044 58002
KDTW 190653Z 22012KT 10SM CLR M04/M09 A2996 RMK AO2 SLP155 T10441094
KDTW 190753Z 22011KT 10SM FEW220 M05/M09 A2996 RMK AO2 SLP155 T10501094
KDTW 190853Z 21011KT 10SM FEW220 M05/M09 A2995 RMK AO2 SLP152 T10501094 56007